OICI  Ilam Airport

Add Bookmark

Ilam, Iran

Status IATA
Operational IIL
Latitude Longitude
33° 35' 11" N 46° 24' 17" E
33.586601 46.404800
Local (DST + 5) UTC (GMT + 4)
Dec 22, 2014 11:16 Dec 22, 2014 07:46
Sunrise-Sunset Local UTC
Begin Civil Twilight 06:56 03:26
Sunrise 07:23 03:53
Sunset 05:22 13:52
End Civil Twilight 05:49 14:19

Current Weather

METAR Observed VFR
OICI 220700Z 16004KT CAVOK 08/01 Q1018 A3009 Mon, Dec 22, 2014 @ 07:00 UTC
(46 Minutes ago)
Visual Flight Rules
Wind Visibility Clouds Conditions
160° at 4 knots (7 kph) 10 km or more
  • Clear skies
  • No significant weather
Temperatures Readings Precipitation
Current Temp 8°C (46°F)
Dewpoint 1°C (34°F)
Humidity 62%
Altimeter 30.06"Hg
Sea Level Pressure 1018mb
Field Elevation 4406.17'
None Recorded

Additional weather within a 185.2km radius of OICI

Map ICAO Location
OICC 109.3km N (039°)
OICK 174.8km E (095°)

24 Hour Weather History

Loading
-

24 Hour Weather Graphs

Loading
-

CheckWX.com is intended as a tool to help pilots better visualize weather data. It is not intended as a substitute for an official weather briefing obtained from a Flight Service Station. CheckWX.com does not meet the FAA requirements for an official pre-flight weather briefing. Therefore, it's important that pilots still call and obtain an official FSS pre-flight weather briefing.